Terminal Aerodrome Forecast
Issued by NWS

Home | Current Version | Previous Version | Text Only | Print | Product List | Glossary On
Versions: 1 2 3 4 5 6 7 8 9 10 11 12 13 14 15 16 17 18 19 20 21 22 23
000
FTUS43 KILX 281342 AAA
TAFBMI
TAF AMD
KBMI 281342Z 2814/2912 19016KT P6SM SCT014 BKN035
      TEMPO 2814/2818 BKN014
     FM281800 20017G24KT P6SM SCT025 BKN120
     FM290200 20011KT P6SM BKN120=

USA.gov is the U.S. government's official web portal to all federal, state and local government web resources and services.